createdAt,value
2023-05-13T00:00:49.897Z,66.80
2023-05-13T00:03:17.674Z,66.48
2023-05-13T00:05:45.756Z,66.16
2023-05-13T00:08:13.242Z,65.98
2023-05-13T00:10:41.036Z,66.29
2023-05-13T00:13:08.459Z,66.19
2023-05-13T00:15:35.865Z,66.14
2023-05-13T00:18:03.653Z,65.92
2023-05-13T00:20:31.229Z,65.71
2023-05-13T00:22:58.660Z,65.47
2023-05-13T00:25:26.367Z,65.45
2023-05-13T00:27:53.742Z,65.33
2023-05-13T00:30:21.448Z,65.27
2023-05-13T00:32:49.314Z,65.05
2023-05-13T00:35:16.921Z,64.87
2023-05-13T00:37:44.950Z,64.85
2023-05-13T00:40:24.649Z,64.93
2023-05-13T00:42:52.140Z,64.78
2023-05-13T00:45:20.534Z,64.60
2023-05-13T00:47:49.505Z,64.02
2023-05-13T00:50:17.131Z,64.18
2023-05-13T00:52:45.033Z,64.58
2023-05-13T00:55:12.782Z,64.05
2023-05-13T00:57:40.525Z,64.18
2023-05-13T01:00:08.923Z,64.45
2023-05-13T01:02:48.958Z,64.50
2023-05-13T01:05:43.229Z,64.73
2023-05-13T01:08:34.843Z,64.92
2023-05-13T01:11:10.503Z,64.52
2023-05-13T01:13:43.077Z,64.85
2023-05-13T01:16:19.179Z,64.64
2023-05-13T01:18:53.668Z,64.03
2023-05-13T01:21:28.447Z,64.32
2023-05-13T01:23:56.239Z,64.30
2023-05-13T01:26:25.265Z,64.47
2023-05-13T01:28:53.419Z,63.82
2023-05-13T01:31:21.504Z,64.03
2023-05-13T01:33:50.232Z,64.31
2023-05-13T01:36:18.107Z,64.06
2023-05-13T01:38:45.499Z,64.64
2023-05-13T01:41:13.215Z,64.64
2023-05-13T01:43:40.683Z,64.85
2023-05-13T01:46:14.499Z,64.42
2023-05-13T01:48:42.253Z,64.56
2023-05-13T01:51:09.952Z,64.63
2023-05-13T01:53:37.388Z,64.60
2023-05-13T01:56:05.495Z,64.30
2023-05-13T01:58:32.867Z,64.16
2023-05-13T02:01:00.786Z,64.16
2023-05-13T02:03:28.617Z,64.70
2023-05-13T02:05:56.426Z,64.43
2023-05-13T02:08:25.400Z,64.28
2023-05-13T02:10:59.347Z,64.99
2023-05-13T02:13:28.488Z,64.72
2023-05-13T02:15:56.540Z,64.98
2023-05-13T02:18:24.546Z,65.13
2023-05-13T02:20:52.150Z,65.04
2023-05-13T02:23:19.902Z,64.83
2023-05-13T02:25:47.309Z,65.60
2023-05-13T02:28:14.963Z,65.15
2023-05-13T02:30:42.817Z,65.21
2023-05-13T02:33:10.526Z,65.16
2023-05-13T02:35:38.063Z,65.33
2023-05-13T02:38:05.937Z,64.73
2023-05-13T02:40:33.551Z,64.61
2023-05-13T02:43:01.094Z,64.57
2023-05-13T02:45:29.617Z,64.78
2023-05-13T02:47:57.776Z,64.49
2023-05-13T02:50:25.337Z,64.76
2023-05-13T02:52:53.514Z,64.96
2023-05-13T02:55:21.338Z,65.26
2023-05-13T02:57:48.752Z,64.83
2023-05-13T03:00:16.698Z,65.12
2023-05-13T03:02:44.238Z,65.55
2023-05-13T03:05:11.715Z,64.96
2023-05-13T03:07:39.482Z,65.13
2023-05-13T03:10:07.394Z,64.83
2023-05-13T03:12:35.062Z,65.01
2023-05-13T03:15:04.293Z,65.14
2023-05-13T03:17:33.400Z,64.48
2023-05-13T03:20:00.898Z,64.70
2023-05-13T03:22:28.920Z,65.09
2023-05-13T03:24:58.303Z,65.02
2023-05-13T03:27:26.222Z,64.62
2023-05-13T03:29:53.904Z,64.83
2023-05-13T03:32:22.869Z,64.63
2023-05-13T03:34:50.418Z,64.14
2023-05-13T03:37:18.096Z,63.74
2023-05-13T03:39:45.479Z,64.06
2023-05-13T03:42:13.266Z,64.16
2023-05-13T03:44:40.982Z,63.98
2023-05-13T03:47:09.093Z,63.61
2023-05-13T03:49:36.508Z,64.29
2023-05-13T03:52:04.583Z,63.97
2023-05-13T03:54:32.001Z,63.90
2023-05-13T03:56:59.381Z,64.24
2023-05-13T03:59:27.138Z,64.71
2023-05-13T04:01:54.591Z,64.50
2023-05-13T04:04:22.420Z,64.54
2023-05-13T04:06:49.893Z,64.29
2023-05-13T04:09:17.345Z,64.36
2023-05-13T04:11:45.092Z,64.73
2023-05-13T04:14:12.451Z,65.26
2023-05-13T04:16:39.978Z,65.29
2023-05-13T04:19:07.746Z,65.79
2023-05-13T04:21:35.225Z,65.34
2023-05-13T04:24:02.731Z,65.45
2023-05-13T04:26:30.354Z,65.13
2023-05-13T04:28:57.798Z,65.72
2023-05-13T04:31:25.998Z,65.12
2023-05-13T04:33:53.824Z,65.39
2023-05-13T04:36:21.754Z,65.16
2023-05-13T04:38:49.242Z,65.20
2023-05-13T04:41:17.405Z,65.13
2023-05-13T04:43:44.934Z,65.63
2023-05-13T04:46:12.753Z,65.11
2023-05-13T04:48:40.486Z,65.37
2023-05-13T04:51:08.578Z,65.32
2023-05-13T04:53:36.502Z,64.72
2023-05-13T04:56:05.305Z,65.02
2023-05-13T04:58:32.691Z,65.03
2023-05-13T05:01:00.165Z,65.02
2023-05-13T05:03:28.321Z,64.69
2023-05-13T05:05:55.799Z,64.34
2023-05-13T05:08:23.963Z,63.88
2023-05-13T05:10:52.006Z,64.37
2023-05-13T05:13:19.848Z,64.58
2023-05-13T05:15:47.296Z,64.67
2023-05-13T05:18:15.374Z,64.92
2023-05-13T05:20:43.480Z,65.42
2023-05-13T05:23:11.392Z,65.27
2023-05-13T05:25:39.512Z,65.25
2023-05-13T05:28:09.318Z,65.07
2023-05-13T05:30:39.733Z,64.62
2023-05-13T05:33:08.609Z,64.70
2023-05-13T05:35:38.253Z,64.31
2023-05-13T05:38:07.591Z,64.46
2023-05-13T05:40:41.068Z,64.61
2023-05-13T05:43:11.118Z,64.21
2023-05-13T05:45:39.648Z,63.96
2023-05-13T05:48:08.123Z,64.15
2023-05-13T05:50:36.471Z,64.63
2023-05-13T05:53:06.910Z,65.44
2023-05-13T05:55:34.846Z,65.24
2023-05-13T05:58:06.480Z,65.16
2023-05-13T06:00:34.698Z,65.17
2023-05-13T06:03:02.582Z,65.97
2023-05-13T06:05:30.122Z,65.16
2023-05-13T06:07:57.521Z,64.98
2023-05-13T06:10:25.307Z,66.10
2023-05-13T06:12:53.433Z,65.67
2023-05-13T06:15:20.938Z,65.05
2023-05-13T06:17:48.655Z,65.46
2023-05-13T06:20:16.281Z,65.91
2023-05-13T06:22:43.794Z,65.67
2023-05-13T06:25:11.501Z,65.19
2023-05-13T06:27:40.820Z,65.15
2023-05-13T06:30:08.501Z,64.86
2023-05-13T06:32:38.132Z,64.67
2023-05-13T06:35:07.565Z,64.22
2023-05-13T06:37:35.455Z,64.07
2023-05-13T06:40:04.278Z,64.23
2023-05-13T06:42:32.606Z,64.66
2023-05-13T06:45:00.239Z,64.19
2023-05-13T06:47:28.170Z,63.94
2023-05-13T06:49:55.754Z,64.67
2023-05-13T06:52:23.179Z,64.59
2023-05-13T06:54:51.488Z,64.89
2023-05-13T06:57:18.924Z,64.61
2023-05-13T06:59:46.309Z,64.29
2023-05-13T07:02:14.334Z,63.75
2023-05-13T07:04:41.728Z,64.62
2023-05-13T07:07:09.086Z,64.58
2023-05-13T07:09:36.705Z,64.60
2023-05-13T07:12:04.439Z,64.07
2023-05-13T07:14:31.825Z,63.76
2023-05-13T07:16:59.640Z,64.50
2023-05-13T07:19:27.084Z,64.35
2023-05-13T07:21:54.612Z,63.62
2023-05-13T07:24:22.469Z,63.12
2023-05-13T07:26:49.936Z,61.79
2023-05-13T07:29:17.797Z,62.05
2023-05-13T07:31:45.520Z,61.86
2023-05-13T07:34:12.942Z,61.63
2023-05-13T07:36:40.711Z,61.32
2023-05-13T07:39:08.728Z,61.06
2023-05-13T07:41:36.829Z,60.91
2023-05-13T07:44:05.806Z,60.50
2023-05-13T07:46:33.607Z,61.03
2023-05-13T07:49:01.105Z,60.84
2023-05-13T07:51:29.459Z,61.75
2023-05-13T07:53:57.224Z,61.27
2023-05-13T07:56:24.657Z,61.13
2023-05-13T07:58:52.547Z,60.63
2023-05-13T08:01:20.295Z,59.61
2023-05-13T08:03:48.170Z,60.06
2023-05-13T08:06:15.711Z,59.01
2023-05-13T08:08:43.185Z,59.40
2023-05-13T08:11:11.083Z,58.74
2023-05-13T08:13:38.727Z,58.64
2023-05-13T08:16:07.334Z,58.43
2023-05-13T08:18:35.133Z,58.89
2023-05-13T08:21:02.637Z,57.50
2023-05-13T08:23:43.544Z,57.02
2023-05-13T08:26:13.408Z,57.59
2023-05-13T08:28:42.279Z,56.34
2023-05-13T08:31:13.670Z,57.24
2023-05-13T08:33:42.691Z,57.28
2023-05-13T08:36:10.181Z,57.35
2023-05-13T08:38:37.700Z,57.81
2023-05-13T08:41:08.415Z,58.43
2023-05-13T08:43:38.287Z,58.51
2023-05-13T08:46:10.996Z,58.78
2023-05-13T08:48:39.627Z,59.73
2023-05-13T08:51:10.092Z,58.78
2023-05-13T08:53:39.582Z,58.65
2023-05-13T08:56:08.999Z,58.81
2023-05-13T08:58:36.480Z,58.30
2023-05-13T09:01:04.365Z,58.18
2023-05-13T09:03:32.642Z,57.44
2023-05-13T09:06:03.464Z,57.55
2023-05-13T09:08:32.642Z,56.67
2023-05-13T09:11:00.886Z,57.14
2023-05-13T09:13:28.336Z,55.97
2023-05-13T09:15:55.961Z,55.99
2023-05-13T09:18:30.117Z,56.81
2023-05-13T09:20:57.725Z,56.49
2023-05-13T09:23:25.448Z,55.61
2023-05-13T09:25:52.830Z,55.92
2023-05-13T09:28:20.242Z,55.42
2023-05-13T09:30:54.716Z,55.11
2023-05-13T09:33:22.626Z,55.38
2023-05-13T09:35:53.747Z,55.68
2023-05-13T09:38:28.884Z,55.56
2023-05-13T09:40:58.500Z,54.74
2023-05-13T09:43:33.043Z,54.70
2023-05-13T09:46:02.081Z,54.64
2023-05-13T09:48:32.089Z,54.98
2023-05-13T09:50:59.707Z,55.28
2023-05-13T09:53:28.578Z,54.25
2023-05-13T09:55:57.317Z,53.57
2023-05-13T09:58:28.340Z,52.96
2023-05-13T10:00:56.873Z,52.22
2023-05-13T10:03:24.958Z,52.38
2023-05-13T10:05:53.581Z,52.44
2023-05-13T10:08:22.250Z,52.97
2023-05-13T10:10:50.589Z,52.39
2023-05-13T10:13:21.162Z,52.08
2023-05-13T10:15:53.332Z,51.78
2023-05-13T10:18:22.642Z,52.27
2023-05-13T10:20:53.416Z,52.19
2023-05-13T10:23:24.898Z,51.79
2023-05-13T10:25:54.025Z,52.83
2023-05-13T10:28:22.280Z,52.85
2023-05-13T10:30:52.513Z,53.07
2023-05-13T10:33:20.444Z,52.85
2023-05-13T10:36:07.968Z,52.79
2023-05-13T10:38:53.522Z,52.64
2023-05-13T10:41:34.959Z,52.83
2023-05-13T10:44:03.711Z,53.53
2023-05-13T10:46:34.455Z,53.84
2023-05-13T10:49:05.033Z,54.26
2023-05-13T10:51:32.800Z,54.58
2023-05-13T10:54:00.287Z,54.51
2023-05-13T10:56:28.483Z,54.04
2023-05-13T10:59:05.915Z,53.60
2023-05-13T11:01:43.926Z,53.82
2023-05-13T11:04:19.986Z,53.58
2023-05-13T11:06:49.195Z,53.71
2023-05-13T11:09:22.916Z,54.08
2023-05-13T11:11:54.145Z,53.96
2023-05-13T11:14:22.843Z,53.55
2023-05-13T11:16:54.515Z,54.08
2023-05-13T11:19:33.021Z,53.13
2023-05-13T11:22:11.348Z,52.74
2023-05-13T11:24:40.048Z,53.39
2023-05-13T11:27:17.446Z,53.17
2023-05-13T11:29:52.522Z,52.75
2023-05-13T11:32:52.508Z,52.37
2023-05-13T11:35:27.849Z,51.97
2023-05-13T11:37:59.160Z,51.34
2023-05-13T11:40:30.966Z,51.58
2023-05-13T11:42:58.944Z,52.14
2023-05-13T11:45:27.162Z,52.45
2023-05-13T11:47:58.093Z,52.09
2023-05-13T11:50:30.419Z,52.20
2023-05-13T11:53:01.619Z,52.04
2023-05-13T11:55:29.957Z,52.15
2023-05-13T11:57:58.874Z,52.66
2023-05-13T12:00:31.038Z,52.08
2023-05-13T12:02:58.952Z,52.51
2023-05-13T12:05:27.067Z,52.33
2023-05-13T12:07:58.386Z,52.30
2023-05-13T12:10:26.608Z,52.41
2023-05-13T12:12:54.482Z,52.29
2023-05-13T12:15:24.475Z,52.42
2023-05-13T12:17:53.355Z,52.29
2023-05-13T12:20:24.235Z,51.66
2023-05-13T12:22:54.522Z,51.13
2023-05-13T12:25:43.567Z,51.25
2023-05-13T12:28:17.282Z,51.36
2023-05-13T12:30:51.842Z,50.97
2023-05-13T12:33:24.621Z,51.30
2023-05-13T12:35:53.657Z,51.26
2023-05-13T12:38:24.045Z,51.24
2023-05-13T12:40:52.442Z,51.39
2023-05-13T12:43:20.467Z,51.67
2023-05-13T12:45:53.743Z,51.67
2023-05-13T12:48:24.003Z,51.57
2023-05-13T12:50:51.831Z,51.83
2023-05-13T12:53:22.456Z,51.93
2023-05-13T12:55:49.900Z,51.55
2023-05-13T12:58:17.596Z,51.92
2023-05-13T13:00:45.906Z,51.50
2023-05-13T13:03:13.516Z,51.70
2023-05-13T13:05:41.437Z,51.96
2023-05-13T13:08:08.832Z,52.22
2023-05-13T13:10:36.231Z,52.05
2023-05-13T13:13:03.988Z,51.67
2023-05-13T13:15:31.497Z,51.28
2023-05-13T13:17:59.103Z,50.68
2023-05-13T13:20:26.918Z,50.67
2023-05-13T13:22:54.847Z,50.97
2023-05-13T13:25:22.581Z,50.33
2023-05-13T13:27:50.788Z,50.72
2023-05-13T13:30:18.256Z,50.06
2023-05-13T13:32:45.790Z,50.60
2023-05-13T13:35:13.552Z,50.63
2023-05-13T13:37:40.997Z,50.42
2023-05-13T13:40:09.023Z,50.02
2023-05-13T13:42:44.055Z,50.04
2023-05-13T13:45:13.769Z,50.32
2023-05-13T13:47:41.882Z,50.22
2023-05-13T13:50:10.014Z,49.93
2023-05-13T13:52:37.451Z,50.22
2023-05-13T13:55:05.816Z,50.42
2023-05-13T13:57:33.206Z,50.83
2023-05-13T14:00:00.800Z,50.29
2023-05-13T14:02:31.212Z,50.42
2023-05-13T14:05:01.964Z,50.42
2023-05-13T14:07:29.466Z,50.26
2023-05-13T14:09:58.005Z,50.65
2023-05-13T14:12:27.260Z,50.14
2023-05-13T14:14:54.694Z,50.56
2023-05-13T14:17:22.145Z,50.55
2023-05-13T14:19:51.828Z,50.66
2023-05-13T14:22:19.270Z,50.49
2023-05-13T14:24:46.668Z,50.66
2023-05-13T14:27:14.533Z,50.65
2023-05-13T14:29:41.943Z,51.06
2023-05-13T14:32:09.326Z,51.19
2023-05-13T14:34:37.163Z,51.65
2023-05-13T14:37:05.116Z,51.78
2023-05-13T14:39:32.538Z,51.89
2023-05-13T14:42:00.896Z,51.83
2023-05-13T14:44:28.300Z,52.04
2023-05-13T14:46:56.041Z,51.99
2023-05-13T14:49:23.805Z,51.70
2023-05-13T14:51:51.241Z,51.92
2023-05-13T14:54:18.737Z,51.93
2023-05-13T14:56:46.536Z,51.27
2023-05-13T14:59:14.040Z,51.46
2023-05-13T15:01:41.416Z,51.17
2023-05-13T15:04:09.152Z,51.48
2023-05-13T15:06:37.811Z,50.72
2023-05-13T15:09:06.032Z,50.35
2023-05-13T15:11:42.173Z,50.88
2023-05-13T15:14:11.819Z,51.12
2023-05-13T15:16:39.607Z,51.13
2023-05-13T15:19:07.703Z,51.17
2023-05-13T15:21:35.281Z,51.56
2023-05-13T15:24:03.129Z,51.45
2023-05-13T15:26:30.623Z,51.26
2023-05-13T15:28:58.193Z,51.34
2023-05-13T15:31:26.079Z,51.92
2023-05-13T15:33:53.673Z,51.50
2023-05-13T15:36:21.217Z,51.40
2023-05-13T15:38:51.741Z,50.86
2023-05-13T15:41:19.140Z,51.32
2023-05-13T15:43:46.678Z,51.46
2023-05-13T15:46:14.572Z,51.61
2023-05-13T15:48:42.029Z,51.16
2023-05-13T15:51:12.160Z,51.50
2023-05-13T15:53:39.865Z,51.21
2023-05-13T15:56:07.437Z,51.39
2023-05-13T15:58:34.847Z,51.14
2023-05-13T16:01:02.568Z,50.58
2023-05-13T16:03:30.308Z,51.12
2023-05-13T16:05:57.764Z,51.09
2023-05-13T16:08:25.274Z,51.51
2023-05-13T16:10:55.177Z,51.56
2023-05-13T16:13:22.654Z,51.38
2023-05-13T16:15:50.113Z,50.88
2023-05-13T16:18:17.889Z,50.55
2023-05-13T16:20:45.358Z,50.56
2023-05-13T16:23:12.756Z,50.50
2023-05-13T16:25:41.825Z,50.01
2023-05-13T16:28:10.919Z,50.16
2023-05-13T16:30:39.453Z,50.67
2023-05-13T16:33:09.473Z,50.65
2023-05-13T16:35:37.118Z,50.44
2023-05-13T16:38:04.590Z,50.31
2023-05-13T16:40:32.350Z,50.98
2023-05-13T16:43:03.269Z,50.65
2023-05-13T16:45:34.110Z,50.48
2023-05-13T16:48:04.052Z,50.30
2023-05-13T16:50:31.786Z,50.65
2023-05-13T16:53:01.566Z,50.13
2023-05-13T16:55:29.044Z,50.63
2023-05-13T16:57:56.765Z,50.31
2023-05-13T17:00:27.347Z,50.45
2023-05-13T17:02:57.672Z,50.25
2023-05-13T17:05:25.363Z,50.54
2023-05-13T17:07:52.788Z,50.53
2023-05-13T17:10:20.435Z,50.88
2023-05-13T17:12:48.245Z,51.82
2023-05-13T17:15:15.709Z,51.17
2023-05-13T17:17:43.238Z,51.18
2023-05-13T17:20:11.486Z,50.98
2023-05-13T17:22:38.885Z,50.24
2023-05-13T17:25:08.815Z,48.62
2023-05-13T17:27:38.636Z,48.62
2023-05-13T17:30:06.772Z,48.71
2023-05-13T17:32:35.052Z,49.26
2023-05-13T17:35:05.297Z,49.62
2023-05-13T17:37:32.785Z,50.00
2023-05-13T17:40:02.552Z,50.70
2023-05-13T17:42:31.325Z,50.69
2023-05-13T17:44:59.086Z,51.13
2023-05-13T17:47:29.940Z,51.42
2023-05-13T17:49:57.708Z,51.12
2023-05-13T17:52:25.347Z,51.16
2023-05-13T17:54:52.883Z,51.51
2023-05-13T17:57:21.245Z,51.79
2023-05-13T17:59:48.675Z,52.19
2023-05-13T18:02:16.242Z,52.88
2023-05-13T18:04:43.938Z,52.67
2023-05-13T18:07:13.690Z,52.71
2023-05-13T18:09:41.095Z,52.67
2023-05-13T18:12:08.832Z,52.80
2023-05-13T18:14:36.249Z,52.61
2023-05-13T18:17:04.331Z,53.06
2023-05-13T18:19:32.064Z,53.73
2023-05-13T18:21:59.778Z,53.87
2023-05-13T18:24:27.225Z,53.58
2023-05-13T18:26:54.866Z,53.57
2023-05-13T18:29:22.390Z,53.38
2023-05-13T18:31:52.300Z,53.41
2023-05-13T18:34:20.065Z,53.66
2023-05-13T18:36:47.542Z,53.79
2023-05-13T18:39:15.564Z,53.64
2023-05-13T18:41:43.306Z,54.29
2023-05-13T18:44:10.931Z,54.33
2023-05-13T18:46:38.452Z,54.21
2023-05-13T18:49:06.351Z,54.13
2023-05-13T18:51:34.207Z,54.58
2023-05-13T18:54:01.707Z,54.54
2023-05-13T18:56:29.530Z,54.86
2023-05-13T18:58:57.057Z,55.35
2023-05-13T19:01:27.675Z,55.89
2023-05-13T19:03:58.165Z,55.77
2023-05-13T19:06:25.722Z,55.51
2023-05-13T19:08:53.130Z,55.40
2023-05-13T19:11:23.152Z,55.66
2023-05-13T19:13:50.645Z,55.36
2023-05-13T19:16:18.892Z,55.54
2023-05-13T19:18:46.588Z,55.53
2023-05-13T19:21:13.987Z,55.33
2023-05-13T19:23:41.429Z,56.17
2023-05-13T19:26:09.205Z,56.03
2023-05-13T19:28:37.952Z,55.98
2023-05-13T19:31:06.028Z,55.93
2023-05-13T19:33:33.792Z,56.64
2023-05-13T19:36:05.322Z,56.54
2023-05-13T19:38:33.912Z,56.70
2023-05-13T19:41:01.732Z,56.89
2023-05-13T19:43:29.150Z,57.20
2023-05-13T19:45:57.561Z,56.76
2023-05-13T19:48:29.828Z,56.68
2023-05-13T19:50:58.347Z,56.93
2023-05-13T19:53:26.567Z,57.08
2023-05-13T19:55:55.394Z,56.81
2023-05-13T19:58:22.833Z,57.09
2023-05-13T20:00:50.530Z,57.60
2023-05-13T20:03:18.336Z,57.32
2023-05-13T20:05:48.122Z,57.10
2023-05-13T20:08:15.520Z,57.31
2023-05-13T20:10:43.217Z,57.32
2023-05-13T20:13:13.496Z,57.23
2023-05-13T20:15:42.172Z,57.22
2023-05-13T20:18:09.923Z,57.52
2023-05-13T20:20:37.422Z,57.70
2023-05-13T20:23:04.872Z,57.61
2023-05-13T20:25:32.606Z,57.10
2023-05-13T20:27:59.983Z,56.80
2023-05-13T20:30:27.383Z,57.16
2023-05-13T20:32:55.115Z,57.49
2023-05-13T20:35:22.592Z,57.13
2023-05-13T20:37:49.989Z,57.03
2023-05-13T20:40:17.697Z,57.24
2023-05-13T20:42:45.294Z,57.98
2023-05-13T20:45:12.736Z,57.84
2023-05-13T20:47:40.512Z,57.69
2023-05-13T20:50:08.319Z,57.87
2023-05-13T20:52:35.966Z,57.93
2023-05-13T20:55:04.242Z,57.98
2023-05-13T20:57:31.651Z,57.50
2023-05-13T20:59:59.021Z,57.99
2023-05-13T21:02:26.699Z,58.07
2023-05-13T21:04:54.152Z,58.22
2023-05-13T21:07:21.520Z,57.90
2023-05-13T21:09:49.262Z,57.68
2023-05-13T21:12:19.666Z,58.07
2023-05-13T21:14:47.029Z,58.00
2023-05-13T21:17:14.722Z,57.61
2023-05-13T21:19:42.093Z,57.65
2023-05-13T21:22:09.452Z,58.00
2023-05-13T21:24:37.079Z,58.33
2023-05-13T21:27:04.701Z,57.58
2023-05-13T21:29:32.159Z,57.94
2023-05-13T21:31:59.809Z,57.99
2023-05-13T21:34:27.212Z,57.81
2023-05-13T21:36:54.594Z,57.83
2023-05-13T21:39:22.255Z,57.82
2023-05-13T21:41:49.673Z,57.65
2023-05-13T21:44:17.080Z,57.67
2023-05-13T21:46:44.766Z,57.30
2023-05-13T21:49:12.239Z,57.40
2023-05-13T21:51:39.974Z,57.48
2023-05-13T21:54:07.683Z,57.35
2023-05-13T21:56:35.094Z,57.39
2023-05-13T21:59:02.561Z,57.50
2023-05-13T22:01:30.402Z,57.11
2023-05-13T22:03:58.113Z,57.12
2023-05-13T22:06:25.553Z,57.35
2023-05-13T22:08:52.957Z,57.71
2023-05-13T22:11:21.016Z,58.13
2023-05-13T22:13:48.577Z,58.14
2023-05-13T22:16:16.119Z,57.97
2023-05-13T22:18:44.057Z,57.92
2023-05-13T22:21:11.608Z,57.52
2023-05-13T22:23:39.022Z,57.70
2023-05-13T22:26:06.703Z,58.09
2023-05-13T22:28:34.129Z,58.14
2023-05-13T22:31:01.586Z,58.06
2023-05-13T22:33:29.348Z,58.35
2023-05-13T22:35:56.792Z,57.84
2023-05-13T22:38:24.435Z,57.92
2023-05-13T22:40:52.088Z,58.32
2023-05-13T22:43:19.523Z,58.39
2023-05-13T22:45:46.952Z,58.00
2023-05-13T22:48:15.088Z,58.16
2023-05-13T22:50:42.497Z,58.14
2023-05-13T22:53:10.294Z,58.10
2023-05-13T22:55:38.269Z,57.98
2023-05-13T22:58:05.781Z,58.15
2023-05-13T23:00:33.191Z,57.88
2023-05-13T23:03:01.023Z,58.15
2023-05-13T23:05:28.765Z,58.52
2023-05-13T23:07:56.173Z,58.39
2023-05-13T23:10:23.970Z,58.01
2023-05-13T23:12:51.494Z,57.99
2023-05-13T23:15:19.115Z,57.67
2023-05-13T23:17:46.996Z,57.81
2023-05-13T23:20:14.450Z,58.07
2023-05-13T23:22:41.904Z,57.37
2023-05-13T23:25:09.951Z,57.51
2023-05-13T23:27:37.353Z,57.56
2023-05-13T23:30:05.526Z,57.99
2023-05-13T23:32:33.202Z,57.33
2023-05-13T23:35:00.585Z,57.71
2023-05-13T23:37:28.025Z,57.31
2023-05-13T23:39:55.907Z,57.40
2023-05-13T23:42:23.322Z,57.46
2023-05-13T23:44:50.718Z,57.21
2023-05-13T23:47:18.469Z,57.84
2023-05-13T23:49:45.882Z,58.03
2023-05-13T23:52:13.313Z,58.27
2023-05-13T23:54:41.014Z,58.12
2023-05-13T23:57:08.497Z,58.67
2023-05-13T23:59:36.094Z,58.68
